createdAt,value
2019-03-19T00:01:01.592Z,77.54
2019-03-19T00:03:30.962Z,77.46
2019-03-19T00:06:01.186Z,77.48
2019-03-19T00:08:32.365Z,77.86
2019-03-19T00:11:06.805Z,77.67
2019-03-19T00:13:43.247Z,77.51
2019-03-19T00:16:09.570Z,77.27
2019-03-19T00:18:38.771Z,77.49
2019-03-19T00:21:08.169Z,77.27
2019-03-19T00:23:37.405Z,77.29
2019-03-19T00:26:06.755Z,77.45
2019-03-19T00:28:36.113Z,77.34
2019-03-19T00:31:05.332Z,77.05
2019-03-19T00:33:34.741Z,77.03
2019-03-19T00:36:03.951Z,76.96
2019-03-19T00:38:33.195Z,77.01
2019-03-19T00:41:02.677Z,77.00
2019-03-19T00:43:31.902Z,76.94
2019-03-19T00:46:01.195Z,76.96
2019-03-19T00:48:30.397Z,77.02
2019-03-19T00:50:59.592Z,77.16
2019-03-19T00:53:28.865Z,77.07
2019-03-19T00:55:58.119Z,76.95
2019-03-19T00:58:27.342Z,77.05
2019-03-19T01:00:56.563Z,77.07
2019-03-19T01:03:25.759Z,77.15
2019-03-19T01:05:54.957Z,77.31
2019-03-19T01:08:24.155Z,77.18
2019-03-19T01:10:53.371Z,77.34
2019-03-19T01:13:22.556Z,77.49
2019-03-19T01:15:51.774Z,77.22
2019-03-19T01:18:21.048Z,77.26
2019-03-19T01:20:50.246Z,77.25
2019-03-19T01:23:19.461Z,77.29
2019-03-19T01:25:55.657Z,77.42
2019-03-19T01:28:17.895Z,77.50
2019-03-19T01:30:47.133Z,77.41
2019-03-19T01:33:16.653Z,77.64
2019-03-19T01:35:45.879Z,77.54
2019-03-19T01:38:15.238Z,77.53
2019-03-19T01:40:44.465Z,77.58
2019-03-19T01:43:13.705Z,77.70
2019-03-19T01:45:42.931Z,77.74
2019-03-19T01:48:12.137Z,77.96
2019-03-19T01:50:41.379Z,77.98
2019-03-19T01:53:10.592Z,77.74
2019-03-19T01:55:39.848Z,77.98
2019-03-19T01:58:09.075Z,78.17
2019-03-19T02:00:38.336Z,78.11
2019-03-19T02:03:07.573Z,78.50
2019-03-19T02:05:36.791Z,78.80
2019-03-19T02:08:06.027Z,78.84
2019-03-19T02:10:35.263Z,78.96
2019-03-19T02:13:04.499Z,79.07
2019-03-19T02:15:33.738Z,79.36
2019-03-19T02:18:03.003Z,79.65
2019-03-19T02:20:32.216Z,79.75
2019-03-19T02:23:01.507Z,79.66
2019-03-19T02:25:30.732Z,79.92
2019-03-19T02:27:59.907Z,79.68
2019-03-19T02:30:29.138Z,79.63
2019-03-19T02:32:58.363Z,79.33
2019-03-19T02:35:27.773Z,78.50
2019-03-19T02:37:57.132Z,78.74
2019-03-19T02:40:26.323Z,79.28
2019-03-19T02:42:55.663Z,79.75
2019-03-19T02:45:24.941Z,80.05
2019-03-19T02:47:54.199Z,80.17
2019-03-19T02:50:23.471Z,80.57
2019-03-19T02:52:52.736Z,81.03
2019-03-19T02:55:21.971Z,81.09
2019-03-19T02:57:51.236Z,81.29
2019-03-19T03:00:20.460Z,81.30
2019-03-19T03:02:49.681Z,81.57
2019-03-19T03:05:18.903Z,81.59
2019-03-19T03:07:48.134Z,81.69
2019-03-19T03:10:17.401Z,81.88
2019-03-19T03:12:46.578Z,82.10
2019-03-19T03:15:15.815Z,82.26
2019-03-19T03:17:45.023Z,82.43
2019-03-19T03:20:14.244Z,82.61
2019-03-19T03:22:43.474Z,82.43
2019-03-19T03:25:12.704Z,82.48
2019-03-19T03:27:42.001Z,82.55
2019-03-19T03:30:11.926Z,82.83
2019-03-19T03:32:41.181Z,82.82
2019-03-19T03:35:10.516Z,82.79
2019-03-19T03:37:39.786Z,82.70
2019-03-19T03:40:10.276Z,83.11
2019-03-19T03:42:42.779Z,83.32
2019-03-19T03:45:09.084Z,83.34
2019-03-19T03:47:38.401Z,83.45
2019-03-19T03:50:08.404Z,83.45
2019-03-19T03:52:37.677Z,83.37
2019-03-19T03:55:07.712Z,83.53
2019-03-19T03:57:36.930Z,83.65
2019-03-19T04:00:08.687Z,83.37
2019-03-19T04:02:37.977Z,83.32
2019-03-19T04:05:07.281Z,83.54
2019-03-19T04:07:36.612Z,83.62
2019-03-19T04:10:06.154Z,83.82
2019-03-19T04:12:35.378Z,84.10
2019-03-19T04:15:05.214Z,84.06
2019-03-19T04:17:34.381Z,83.99
2019-03-19T04:20:03.639Z,84.10
2019-03-19T04:22:32.874Z,84.23
2019-03-19T04:25:02.104Z,84.10
2019-03-19T04:27:31.309Z,84.22
2019-03-19T04:30:00.549Z,84.27
2019-03-19T04:32:29.715Z,84.47
2019-03-19T04:34:58.992Z,84.59
2019-03-19T04:37:28.287Z,84.47
2019-03-19T04:39:57.499Z,84.56
2019-03-19T04:42:26.789Z,84.65
2019-03-19T04:44:56.001Z,84.50
2019-03-19T04:47:25.233Z,84.41
2019-03-19T04:49:54.593Z,84.35
2019-03-19T04:52:23.883Z,84.21
2019-03-19T04:54:53.099Z,84.14
2019-03-19T04:57:26.822Z,83.93
2019-03-19T04:59:51.509Z,83.99
2019-03-19T05:02:20.733Z,84.05
2019-03-19T05:04:49.992Z,84.09
2019-03-19T05:07:19.269Z,83.92
2019-03-19T05:09:48.531Z,83.66
2019-03-19T05:12:17.832Z,83.80
2019-03-19T05:14:47.033Z,83.59
2019-03-19T05:17:16.299Z,83.57
2019-03-19T05:19:45.488Z,83.38
2019-03-19T05:22:14.712Z,82.98
2019-03-19T05:24:43.928Z,83.06
2019-03-19T05:27:14.067Z,82.82
2019-03-19T05:29:42.395Z,82.79
2019-03-19T05:32:11.611Z,82.82
2019-03-19T05:34:40.837Z,83.01
2019-03-19T05:37:10.096Z,82.68
2019-03-19T05:39:39.407Z,82.36
2019-03-19T05:42:08.719Z,82.39
2019-03-19T05:44:38.003Z,82.61
2019-03-19T05:47:07.315Z,82.48
2019-03-19T05:49:36.561Z,82.61
2019-03-19T05:52:05.913Z,82.53
2019-03-19T05:54:35.189Z,82.48
2019-03-19T05:57:04.390Z,82.83
2019-03-19T05:59:33.590Z,82.76
2019-03-19T06:02:02.911Z,82.74
2019-03-19T06:04:32.195Z,82.47
2019-03-19T06:07:03.242Z,82.53
2019-03-19T06:09:32.424Z,82.43
2019-03-19T06:12:01.631Z,82.38
2019-03-19T06:14:31.119Z,82.20
2019-03-19T06:17:00.396Z,82.16
2019-03-19T06:19:29.649Z,82.25
2019-03-19T06:21:58.832Z,82.09
2019-03-19T06:24:28.071Z,82.04
2019-03-19T06:26:57.314Z,81.69
2019-03-19T06:29:26.552Z,81.33
2019-03-19T06:31:55.748Z,81.36
2019-03-19T06:34:25.024Z,81.39
2019-03-19T06:36:54.472Z,81.21
2019-03-19T06:39:23.767Z,80.70
2019-03-19T06:41:53.055Z,80.55
2019-03-19T06:44:22.277Z,80.45
2019-03-19T06:46:51.514Z,80.65
2019-03-19T06:49:20.710Z,80.08
2019-03-19T06:51:49.919Z,80.23
2019-03-19T06:54:19.144Z,80.04
2019-03-19T06:56:48.343Z,80.29
2019-03-19T06:59:17.655Z,80.05
2019-03-19T07:01:46.939Z,79.73
2019-03-19T07:04:16.235Z,79.70
2019-03-19T07:06:45.485Z,79.55
2019-03-19T07:09:14.705Z,79.11
2019-03-19T07:11:43.903Z,79.32
2019-03-19T07:14:13.120Z,78.87
2019-03-19T07:16:42.335Z,77.66
2019-03-19T07:19:11.609Z,77.94
2019-03-19T07:21:40.789Z,77.62
2019-03-19T07:24:10.067Z,77.31
2019-03-19T07:26:39.277Z,77.43
2019-03-19T07:29:08.557Z,76.28
2019-03-19T07:31:37.777Z,75.51
2019-03-19T07:34:07.103Z,74.67
2019-03-19T07:36:36.311Z,74.58
2019-03-19T07:39:08.331Z,74.98
2019-03-19T07:41:37.579Z,74.02
2019-03-19T07:44:06.852Z,72.12
2019-03-19T07:46:36.158Z,72.23
2019-03-19T07:49:05.415Z,71.66
2019-03-19T07:51:34.640Z,71.22
2019-03-19T07:54:03.956Z,71.28
2019-03-19T07:56:33.310Z,71.48
2019-03-19T07:59:02.576Z,71.41
2019-03-19T08:01:31.923Z,71.99
2019-03-19T08:04:01.353Z,72.83
2019-03-19T08:06:32.674Z,73.97
2019-03-19T08:09:00.087Z,73.67
2019-03-19T08:11:29.443Z,73.36
2019-03-19T08:13:58.689Z,73.00
2019-03-19T08:16:27.934Z,72.16
2019-03-19T08:18:57.228Z,71.28
2019-03-19T08:21:26.406Z,71.19
2019-03-19T08:23:55.660Z,70.36
2019-03-19T08:26:24.988Z,70.26
2019-03-19T08:28:55.516Z,69.58
2019-03-19T08:31:23.462Z,70.27
2019-03-19T08:33:52.762Z,68.55
2019-03-19T08:36:22.026Z,69.07
2019-03-19T08:38:51.240Z,69.15
2019-03-19T08:41:20.644Z,68.70
2019-03-19T08:43:49.911Z,67.82
2019-03-19T08:46:19.171Z,67.73
2019-03-19T08:48:48.382Z,67.22
2019-03-19T08:51:17.627Z,67.58
2019-03-19T08:53:46.942Z,67.18
2019-03-19T08:56:16.147Z,66.93
2019-03-19T08:58:45.436Z,66.44
2019-03-19T09:01:14.628Z,66.37
2019-03-19T09:03:43.886Z,64.86
2019-03-19T09:06:13.137Z,64.87
2019-03-19T09:08:42.413Z,65.03
2019-03-19T09:11:11.731Z,64.68
2019-03-19T09:13:41.013Z,64.98
2019-03-19T09:16:10.299Z,64.18
2019-03-19T09:18:39.519Z,63.29
2019-03-19T09:21:08.826Z,63.23
2019-03-19T09:23:38.112Z,62.32
2019-03-19T09:26:07.497Z,62.36
2019-03-19T09:28:36.724Z,63.08
2019-03-19T09:31:05.918Z,63.82
2019-03-19T09:33:35.127Z,64.64
2019-03-19T09:36:04.422Z,66.06
2019-03-19T09:38:33.737Z,65.35
2019-03-19T09:41:03.046Z,64.93
2019-03-19T09:43:32.325Z,64.96
2019-03-19T09:46:01.575Z,65.22
2019-03-19T09:48:30.823Z,63.76
2019-03-19T09:51:00.139Z,61.12
2019-03-19T09:53:29.426Z,58.60
2019-03-19T09:55:58.673Z,55.49
2019-03-19T09:58:27.976Z,54.16
2019-03-19T10:00:57.265Z,54.16
2019-03-19T10:03:26.535Z,53.65
2019-03-19T10:05:55.971Z,52.90
2019-03-19T10:08:25.190Z,51.70
2019-03-19T10:10:54.467Z,50.28
2019-03-19T10:13:23.726Z,48.25
2019-03-19T10:15:52.930Z,47.10
2019-03-19T10:18:22.322Z,51.03
2019-03-19T10:20:51.607Z,51.62
2019-03-19T10:23:20.847Z,52.49
2019-03-19T10:25:50.090Z,52.71
2019-03-19T10:28:19.319Z,50.19
2019-03-19T10:30:48.659Z,49.36
2019-03-19T10:33:17.946Z,48.19
2019-03-19T10:35:47.341Z,44.60
2019-03-19T10:38:16.576Z,43.99
2019-03-19T10:40:45.806Z,44.58
2019-03-19T10:43:15.181Z,47.67
2019-03-19T10:45:44.447Z,52.70
2019-03-19T10:48:13.768Z,52.70
2019-03-19T10:50:43.037Z,54.55
2019-03-19T10:53:12.357Z,55.30
2019-03-19T10:55:43.400Z,55.71
2019-03-19T10:58:11.506Z,55.88
2019-03-19T11:00:40.180Z,55.34
2019-03-19T11:03:09.442Z,55.93
2019-03-19T11:05:38.754Z,56.11
2019-03-19T11:08:07.973Z,55.22
2019-03-19T11:10:37.271Z,53.41
2019-03-19T11:13:06.550Z,48.76
2019-03-19T11:15:35.874Z,47.79
2019-03-19T11:18:05.436Z,45.23
2019-03-19T11:20:34.769Z,44.97
2019-03-19T11:23:04.189Z,46.17
2019-03-19T11:25:33.538Z,47.59
2019-03-19T11:28:02.882Z,48.50
2019-03-19T11:30:32.096Z,47.94
2019-03-19T11:33:01.293Z,48.73
2019-03-19T11:35:30.594Z,49.47
2019-03-19T11:37:59.961Z,51.59
2019-03-19T11:40:29.228Z,51.59
2019-03-19T11:42:58.518Z,50.30
2019-03-19T11:45:27.832Z,51.79
2019-03-19T11:47:57.135Z,49.65
2019-03-19T11:50:26.431Z,50.42
2019-03-19T11:52:55.576Z,50.42
2019-03-19T11:55:24.875Z,51.56
2019-03-19T11:57:54.171Z,51.07
2019-03-19T12:00:28.914Z,50.91
2019-03-19T12:02:58.186Z,50.91
2019-03-19T12:05:27.374Z,50.34
2019-03-19T12:07:56.634Z,49.90
2019-03-19T12:10:25.859Z,48.93
2019-03-19T12:12:55.106Z,47.39
2019-03-19T12:15:24.294Z,47.39
2019-03-19T12:17:53.566Z,47.17
2019-03-19T12:20:22.776Z,45.48
2019-03-19T12:22:52.002Z,44.04
2019-03-19T12:25:21.230Z,42.26
2019-03-19T12:27:50.923Z,39.83
2019-03-19T12:30:22.596Z,40.84
2019-03-19T12:32:49.459Z,42.28
2019-03-19T12:35:18.826Z,44.30
2019-03-19T12:37:48.038Z,46.51
2019-03-19T12:40:17.251Z,47.73
2019-03-19T12:42:46.569Z,48.78
2019-03-19T12:45:15.815Z,48.43
2019-03-19T12:47:45.083Z,48.43
2019-03-19T12:50:15.644Z,46.75
2019-03-19T12:52:44.877Z,44.03
2019-03-19T12:55:14.122Z,45.00
2019-03-19T12:57:43.376Z,45.85
2019-03-19T13:00:17.107Z,48.23
2019-03-19T13:02:46.412Z,48.23
2019-03-19T13:05:15.682Z,48.74
2019-03-19T13:07:47.440Z,46.53
2019-03-19T13:10:16.289Z,43.23
2019-03-19T13:12:45.640Z,43.51
2019-03-19T13:15:15.280Z,43.97
2019-03-19T13:17:44.574Z,42.37
2019-03-19T13:20:14.026Z,43.28
2019-03-19T13:22:43.354Z,43.17
2019-03-19T13:25:14.381Z,41.89
2019-03-19T13:27:43.722Z,41.40
2019-03-19T13:30:17.462Z,42.30
2019-03-19T13:32:46.799Z,40.53
2019-03-19T13:35:16.169Z,40.57
2019-03-19T13:37:45.394Z,38.81
2019-03-19T13:40:15.687Z,39.57
2019-03-19T13:42:45.093Z,39.87
2019-03-19T13:45:14.766Z,41.18
2019-03-19T13:47:43.980Z,42.02
2019-03-19T13:50:13.266Z,42.85
2019-03-19T13:52:42.594Z,43.22
2019-03-19T13:55:12.614Z,43.89
2019-03-19T13:57:41.899Z,44.77
2019-03-19T14:00:12.233Z,45.41
2019-03-19T14:02:41.706Z,45.85
2019-03-19T14:05:11.046Z,44.58
2019-03-19T14:07:40.297Z,44.57
2019-03-19T14:10:09.970Z,43.41
2019-03-19T14:12:39.262Z,44.30
2019-03-19T14:15:10.603Z,44.56
2019-03-19T14:17:39.896Z,45.39
2019-03-19T14:20:10.628Z,46.56
2019-03-19T14:22:39.830Z,47.07
2019-03-19T14:25:09.364Z,47.45
2019-03-19T14:27:38.657Z,47.55
2019-03-19T14:30:10.402Z,47.29
2019-03-19T14:32:39.634Z,45.54
2019-03-19T14:35:09.022Z,45.54
2019-03-19T14:37:38.302Z,44.51
2019-03-19T14:40:08.984Z,44.70
2019-03-19T14:42:38.181Z,44.63
2019-03-19T14:45:07.658Z,43.65
2019-03-19T14:47:36.944Z,43.87
2019-03-19T14:50:06.564Z,42.71
2019-03-19T14:52:35.760Z,41.14
2019-03-19T14:55:05.472Z,40.84
2019-03-19T14:57:34.764Z,40.90
2019-03-19T15:00:04.908Z,40.40
2019-03-19T15:02:34.182Z,40.61
2019-03-19T15:05:03.458Z,41.12
2019-03-19T15:07:32.640Z,41.82
2019-03-19T15:10:01.905Z,42.80
2019-03-19T15:12:31.119Z,43.80
2019-03-19T15:15:00.342Z,44.56
2019-03-19T15:17:29.572Z,46.00
2019-03-19T15:19:58.920Z,46.00
2019-03-19T15:22:32.471Z,46.05
2019-03-19T15:24:57.568Z,46.42
2019-03-19T15:27:26.892Z,46.42
2019-03-19T15:29:56.313Z,46.29
2019-03-19T15:32:25.517Z,46.54
2019-03-19T15:34:54.712Z,46.58
2019-03-19T15:37:24.012Z,47.20
2019-03-19T15:39:53.320Z,47.05
2019-03-19T15:42:22.586Z,46.17
2019-03-19T15:44:51.805Z,46.21
2019-03-19T15:47:21.120Z,46.51
2019-03-19T15:49:50.331Z,46.52
2019-03-19T15:52:19.769Z,46.91
2019-03-19T15:54:48.887Z,46.91
2019-03-19T15:57:18.215Z,46.73
2019-03-19T15:59:47.479Z,46.73
2019-03-19T16:02:16.700Z,46.89
2019-03-19T16:04:45.963Z,46.98
2019-03-19T16:07:15.199Z,47.38
2019-03-19T16:09:44.637Z,48.17
2019-03-19T16:12:13.902Z,48.16
2019-03-19T16:14:43.122Z,48.07
2019-03-19T16:17:12.354Z,48.07
2019-03-19T16:19:41.595Z,48.44
2019-03-19T16:22:10.920Z,48.44
2019-03-19T16:24:41.775Z,48.44
2019-03-19T16:27:11.077Z,48.21
2019-03-19T16:29:40.593Z,47.54
2019-03-19T16:32:09.834Z,47.76
2019-03-19T16:34:39.639Z,47.99
2019-03-19T16:37:08.879Z,47.90
2019-03-19T16:39:38.191Z,48.14
2019-03-19T16:42:07.796Z,48.14
2019-03-19T16:44:37.177Z,48.21
2019-03-19T16:47:06.632Z,48.21
2019-03-19T16:49:36.557Z,47.58
2019-03-19T16:52:05.889Z,47.24
2019-03-19T16:54:35.154Z,47.24
2019-03-19T16:57:04.434Z,47.24
2019-03-19T16:59:33.671Z,47.20
2019-03-19T17:02:03.020Z,46.97
2019-03-19T17:04:32.339Z,46.80
2019-03-19T17:07:01.598Z,46.94
2019-03-19T17:09:34.250Z,47.52
2019-03-19T17:12:03.487Z,47.88
2019-03-19T17:14:32.883Z,48.09
2019-03-19T17:17:02.315Z,48.72
2019-03-19T17:19:31.915Z,49.03
2019-03-19T17:22:01.453Z,49.15
2019-03-19T17:24:30.800Z,49.53
2019-03-19T17:27:00.203Z,49.82
2019-03-19T17:29:29.491Z,50.15
2019-03-19T17:31:58.713Z,50.54
2019-03-19T17:34:28.063Z,50.75
2019-03-19T17:36:57.274Z,50.88
2019-03-19T17:39:26.502Z,51.05
2019-03-19T17:41:55.857Z,51.06
2019-03-19T17:44:25.084Z,51.35
2019-03-19T17:47:03.312Z,52.00
2019-03-19T17:49:32.667Z,52.25
2019-03-19T17:52:01.931Z,52.53
2019-03-19T17:54:31.426Z,52.80
2019-03-19T17:57:00.732Z,53.21
2019-03-19T17:59:30.050Z,53.44
2019-03-19T18:02:23.350Z,53.62
2019-03-19T18:04:40.985Z,54.03
2019-03-19T18:07:10.216Z,54.12
2019-03-19T18:09:39.571Z,54.50
2019-03-19T18:12:08.945Z,54.91
2019-03-19T18:14:38.228Z,55.08
2019-03-19T18:17:07.514Z,55.42
2019-03-19T18:19:36.733Z,55.48
2019-03-19T18:22:06.011Z,55.72
2019-03-19T18:24:35.459Z,55.72
2019-03-19T18:27:04.700Z,55.72
2019-03-19T18:29:34.162Z,55.72
2019-03-19T18:32:03.541Z,55.96
2019-03-19T18:34:32.807Z,56.31
2019-03-19T18:37:02.165Z,56.32
2019-03-19T18:39:31.642Z,56.46
2019-03-19T18:42:00.902Z,56.61
2019-03-19T18:44:30.181Z,56.95
2019-03-19T18:46:59.613Z,56.98
2019-03-19T18:49:29.396Z,57.24
2019-03-19T18:51:58.681Z,57.42
2019-03-19T18:54:27.970Z,57.85
2019-03-19T18:56:57.673Z,58.14
2019-03-19T18:59:26.968Z,58.50
2019-03-19T19:01:56.277Z,59.08
2019-03-19T19:04:25.588Z,58.91
2019-03-19T19:06:54.893Z,59.23
2019-03-19T19:09:24.418Z,59.44
2019-03-19T19:11:53.690Z,59.90
2019-03-19T19:14:23.110Z,60.58
2019-03-19T19:16:52.507Z,60.99
2019-03-19T19:19:22.059Z,60.97
2019-03-19T19:21:51.426Z,61.02
2019-03-19T19:24:20.949Z,61.27
2019-03-19T19:26:50.201Z,61.56
2019-03-19T19:29:19.627Z,61.68
2019-03-19T19:31:49.017Z,61.64
2019-03-19T19:34:18.562Z,61.90
2019-03-19T19:36:48.089Z,61.94
2019-03-19T19:39:17.334Z,62.34
2019-03-19T19:41:46.716Z,62.24
2019-03-19T19:44:15.910Z,62.36
2019-03-19T19:46:45.282Z,62.57
2019-03-19T19:49:14.759Z,62.60
2019-03-19T19:51:43.981Z,62.54
2019-03-19T19:54:13.390Z,62.60
2019-03-19T19:56:42.724Z,62.69
2019-03-19T19:59:12.122Z,62.66
2019-03-19T20:01:41.446Z,62.59
2019-03-19T20:04:10.976Z,62.39
2019-03-19T20:06:40.214Z,62.30
2019-03-19T20:09:09.755Z,62.30
2019-03-19T20:11:38.882Z,62.36
2019-03-19T20:14:08.230Z,62.28
2019-03-19T20:16:37.486Z,62.44
2019-03-19T20:19:06.743Z,62.24
2019-03-19T20:21:36.062Z,62.29
2019-03-19T20:24:05.336Z,62.46
2019-03-19T20:26:34.657Z,62.05
2019-03-19T20:29:03.942Z,62.27
2019-03-19T20:31:33.187Z,62.28
2019-03-19T20:34:02.471Z,62.21
2019-03-19T20:36:31.883Z,62.44
2019-03-19T20:39:01.119Z,62.62
2019-03-19T20:41:30.360Z,62.47
2019-03-19T20:43:59.558Z,62.75
2019-03-19T20:46:28.742Z,62.85
2019-03-19T20:48:58.020Z,62.83
2019-03-19T20:51:27.214Z,62.76
2019-03-19T20:53:56.478Z,62.75
2019-03-19T20:56:25.662Z,62.66
2019-03-19T20:58:54.978Z,62.77
2019-03-19T21:01:24.238Z,65.55
2019-03-19T21:03:53.458Z,67.28
2019-03-19T21:06:22.732Z,65.13
2019-03-19T21:08:52.088Z,62.64
2019-03-19T21:11:21.337Z,62.51
2019-03-19T21:13:50.675Z,62.32
2019-03-19T21:16:19.929Z,62.58
2019-03-19T21:18:49.129Z,62.74
2019-03-19T21:21:18.391Z,63.05
2019-03-19T21:23:47.588Z,63.11
2019-03-19T21:26:16.857Z,63.39
2019-03-19T21:28:46.168Z,63.50
2019-03-19T21:31:15.561Z,63.75
2019-03-19T21:33:51.150Z,63.87
2019-03-19T21:36:14.067Z,64.05
2019-03-19T21:38:43.452Z,64.42
2019-03-19T21:41:12.688Z,64.57
2019-03-19T21:43:41.883Z,64.65
2019-03-19T21:46:11.135Z,64.75
2019-03-19T21:48:40.448Z,64.63
2019-03-19T21:51:09.710Z,64.71
2019-03-19T21:53:38.919Z,64.72
2019-03-19T21:56:08.254Z,64.85
2019-03-19T21:58:37.554Z,65.00
2019-03-19T22:01:06.770Z,65.17
2019-03-19T22:03:35.988Z,65.00
2019-03-19T22:06:05.284Z,64.91
2019-03-19T22:08:34.436Z,64.91
2019-03-19T22:11:03.661Z,65.01
2019-03-19T22:13:32.944Z,65.14
2019-03-19T22:16:02.194Z,65.29
2019-03-19T22:18:31.478Z,65.61
2019-03-19T22:21:00.749Z,65.94
2019-03-19T22:23:29.956Z,65.96
2019-03-19T22:25:59.275Z,66.38
2019-03-19T22:28:28.482Z,66.60
2019-03-19T22:30:57.747Z,66.78
2019-03-19T22:33:27.005Z,67.14
2019-03-19T22:35:56.370Z,67.03
2019-03-19T22:38:25.645Z,67.18
2019-03-19T22:40:54.961Z,67.49
2019-03-19T22:43:25.980Z,67.44
2019-03-19T22:45:53.394Z,67.78
2019-03-19T22:48:22.598Z,68.29
2019-03-19T22:50:52.059Z,68.30
2019-03-19T22:53:21.344Z,68.51
2019-03-19T22:55:50.544Z,68.85
2019-03-19T22:58:19.871Z,68.94
2019-03-19T23:00:49.904Z,68.90
2019-03-19T23:03:19.132Z,69.23
2019-03-19T23:05:48.346Z,69.40
2019-03-19T23:08:17.592Z,69.47
2019-03-19T23:10:46.858Z,69.23
2019-03-19T23:13:16.090Z,69.27
2019-03-19T23:15:45.324Z,69.21
2019-03-19T23:18:14.570Z,69.36
2019-03-19T23:20:43.884Z,69.66
2019-03-19T23:23:13.113Z,69.31
2019-03-19T23:25:42.319Z,69.58
2019-03-19T23:28:11.507Z,69.61
2019-03-19T23:30:40.780Z,69.84
2019-03-19T23:33:09.974Z,69.93
2019-03-19T23:35:39.233Z,69.84
2019-03-19T23:38:08.486Z,69.75
2019-03-19T23:40:37.769Z,70.14
2019-03-19T23:43:07.014Z,70.26
2019-03-19T23:45:36.246Z,69.96
2019-03-19T23:48:05.479Z,70.13
2019-03-19T23:50:34.676Z,70.15
2019-03-19T23:53:03.955Z,69.87
2019-03-19T23:55:33.282Z,69.74
2019-03-19T23:58:02.564Z,69.71
